Terminal Aerodrome Forecast
Issued by NWS Tampa Bay Area, FL

Home | Current Version | Previous Version | Text Only | Print | Product List | Glossary On
Versions: 1 2 3 4 5 6 7 8 9 10 11 12 13 14 15 16 17 18
000
FTUS42 KTBW 022300
TAFSRQ
TAF
KSRQ 022321Z 0300/0324 29009KT P6SM FEW030
     FM030200 07004KT P6SM SKC
     FM030800 08003KT 6SM BR BKN007
     FM031000 08003KT 4SM BR OVC003
     FM031400 11007KT P6SM SCT010 SCT250
     FM031600 13007KT P6SM SCT030 SCT250=

USA.gov is the U.S. government's official web portal to all federal, state and local government web resources and services.